MYJ weather

Mexico Memorial Airport
Mexico, Missouri, United States

Public forecast

Using degrees Fahrenheit for public forecast. Weather courtesy of forecast.io.

METAR (pilot weather report)

Closest report is Columbia Regional Airport, 27.7 nm (51.3 km) SW. Retrieved 2019/08/21 22:54 UTC (42 minutes ago):

KCOU 212254Z 32008KT 10SM CLR 30/22 A2999 RMK AO2 SLP144 T03000222

TAF (pilot weather forecast)

Closest forecast is Columbia Regional Airport, 27.7 nm (51.3 km) SW. Retrieved 2019/08/21 18:40 UTC (5 hours ago):

TAF KCOU 211737Z 2118/2218 VRB05KT P6SM SCT040 BKN200 FM220300 02005KT 5SM -TSRA BKN030CB FM221200 01005KT P6SM VCSH OVC020